sensor_id;sensor_type;location;lat;lon;timestamp;P1;durP1;ratioP1;P2;durP2;ratioP2
11439;SDS011;5776;51.814;4.510;2022-07-23T00:01:36;3.95;;;1.42;;
11439;SDS011;5776;51.814;4.510;2022-07-23T00:04:02;4.20;;;1.52;;
11439;SDS011;5776;51.814;4.510;2022-07-23T00:06:28;4.97;;;1.73;;
11439;SDS011;5776;51.814;4.510;2022-07-23T00:08:54;4.63;;;1.45;;
11439;SDS011;5776;51.814;4.510;2022-07-23T00:11:21;3.38;;;1.45;;
11439;SDS011;5776;51.814;4.510;2022-07-23T00:13:47;3.38;;;1.40;;
11439;SDS011;5776;51.814;4.510;2022-07-23T00:16:14;4.68;;;1.50;;
11439;SDS011;5776;51.814;4.510;2022-07-23T00:18:40;4.70;;;1.10;;
11439;SDS011;5776;51.814;4.510;2022-07-23T00:21:07;2.88;;;1.10;;
11439;SDS011;5776;51.814;4.510;2022-07-23T00:23:33;3.15;;;1.20;;
11439;SDS011;5776;51.814;4.510;2022-07-23T00:25:59;1.42;;;0.98;;
11439;SDS011;5776;51.814;4.510;2022-07-23T00:28:25;2.05;;;0.88;;
11439;SDS011;5776;51.814;4.510;2022-07-23T00:30:50;3.75;;;1.10;;
11439;SDS011;5776;51.814;4.510;2022-07-23T00:33:16;1.25;;;0.95;;
11439;SDS011;5776;51.814;4.510;2022-07-23T00:35:42;2.72;;;1.30;;
11439;SDS011;5776;51.814;4.510;2022-07-23T00:38:09;3.55;;;1.30;;
11439;SDS011;5776;51.814;4.510;2022-07-23T00:40:36;2.65;;;0.98;;
11439;SDS011;5776;51.814;4.510;2022-07-23T00:43:03;2.22;;;1.10;;
11439;SDS011;5776;51.814;4.510;2022-07-23T00:45:30;2.78;;;1.45;;
11439;SDS011;5776;51.814;4.510;2022-07-23T00:47:56;1.90;;;1.20;;
11439;SDS011;5776;51.814;4.510;2022-07-23T00:50:25;3.67;;;1.20;;
11439;SDS011;5776;51.814;4.510;2022-07-23T00:52:51;10.15;;;1.42;;
11439;SDS011;5776;51.814;4.510;2022-07-23T00:55:18;2.00;;;1.10;;
11439;SDS011;5776;51.814;4.510;2022-07-23T00:57:44;1.83;;;0.77;;
11439;SDS011;5776;51.814;4.510;2022-07-23T01:00:11;4.30;;;1.08;;
11439;SDS011;5776;51.814;4.510;2022-07-23T01:02:39;2.55;;;1.13;;
11439;SDS011;5776;51.814;4.510;2022-07-23T01:05:06;2.95;;;1.13;;
11439;SDS011;5776;51.814;4.510;2022-07-23T01:07:33;2.75;;;1.20;;
11439;SDS011;5776;51.814;4.510;2022-07-23T01:09:59;3.95;;;1.17;;
11439;SDS011;5776;51.814;4.510;2022-07-23T01:12:26;3.53;;;1.30;;
11439;SDS011;5776;51.814;4.510;2022-07-23T01:14:55;3.15;;;1.17;;
11439;SDS011;5776;51.814;4.510;2022-07-23T01:17:24;2.55;;;1.27;;
11439;SDS011;5776;51.814;4.510;2022-07-23T01:19:51;1.55;;;1.00;;
11439;SDS011;5776;51.814;4.510;2022-07-23T01:22:18;4.82;;;1.48;;
11439;SDS011;5776;51.814;4.510;2022-07-23T01:24:45;4.22;;;1.40;;
11439;SDS011;5776;51.814;4.510;2022-07-23T01:27:11;3.45;;;1.30;;
11439;SDS011;5776;51.814;4.510;2022-07-23T01:29:38;3.40;;;1.40;;
11439;SDS011;5776;51.814;4.510;2022-07-23T01:32:05;2.67;;;1.23;;
11439;SDS011;5776;51.814;4.510;2022-07-23T01:34:31;1.55;;;1.10;;
11439;SDS011;5776;51.814;4.510;2022-07-23T01:36:57;2.05;;;1.20;;
11439;SDS011;5776;51.814;4.510;2022-07-23T01:39:23;2.95;;;1.10;;
11439;SDS011;5776;51.814;4.510;2022-07-23T01:41:49;2.58;;;1.42;;
11439;SDS011;5776;51.814;4.510;2022-07-23T01:44:15;2.83;;;1.10;;
11439;SDS011;5776;51.814;4.510;2022-07-23T01:46:41;2.45;;;1.23;;
11439;SDS011;5776;51.814;4.510;2022-07-23T01:49:07;4.10;;;1.50;;
11439;SDS011;5776;51.814;4.510;2022-07-23T01:51:33;5.22;;;1.60;;
11439;SDS011;5776;51.814;4.510;2022-07-23T01:53:59;2.50;;;1.30;;
11439;SDS011;5776;51.814;4.510;2022-07-23T01:56:25;3.70;;;1.38;;
11439;SDS011;5776;51.814;4.510;2022-07-23T01:58:51;3.42;;;1.42;;
11439;SDS011;5776;51.814;4.510;2022-07-23T02:01:17;3.22;;;1.58;;
11439;SDS011;5776;51.814;4.510;2022-07-23T02:03:43;2.42;;;1.50;;
11439;SDS011;5776;51.814;4.510;2022-07-23T02:06:09;3.92;;;1.30;;
11439;SDS011;5776;51.814;4.510;2022-07-23T02:08:35;2.20;;;0.90;;
11439;SDS011;5776;51.814;4.510;2022-07-23T02:11:01;3.85;;;1.40;;
11439;SDS011;5776;51.814;4.510;2022-07-23T02:13:27;3.45;;;1.27;;
11439;SDS011;5776;51.814;4.510;2022-07-23T02:15:54;3.88;;;1.65;;
11439;SDS011;5776;51.814;4.510;2022-07-23T02:18:20;6.10;;;1.25;;
11439;SDS011;5776;51.814;4.510;2022-07-23T02:20:46;2.65;;;1.33;;
11439;SDS011;5776;51.814;4.510;2022-07-23T02:23:12;2.72;;;1.40;;
11439;SDS011;5776;51.814;4.510;2022-07-23T02:25:44;2.78;;;1.60;;
11439;SDS011;5776;51.814;4.510;2022-07-23T02:28:10;5.47;;;1.80;;
11439;SDS011;5776;51.814;4.510;2022-07-23T02:30:36;4.10;;;1.50;;
11439;SDS011;5776;51.814;4.510;2022-07-23T02:33:03;4.47;;;1.42;;
11439;SDS011;5776;51.814;4.510;2022-07-23T02:35:29;3.72;;;1.88;;
11439;SDS011;5776;51.814;4.510;2022-07-23T02:37:55;4.35;;;1.60;;
11439;SDS011;5776;51.814;4.510;2022-07-23T02:40:21;3.33;;;1.30;;
11439;SDS011;5776;51.814;4.510;2022-07-23T02:42:47;1.65;;;1.02;;
11439;SDS011;5776;51.814;4.510;2022-07-23T02:45:13;2.13;;;1.23;;
11439;SDS011;5776;51.814;4.510;2022-07-23T02:47:39;5.32;;;1.48;;
11439;SDS011;5776;51.814;4.510;2022-07-23T02:50:05;4.28;;;1.75;;
11439;SDS011;5776;51.814;4.510;2022-07-23T02:52:32;3.35;;;1.50;;
11439;SDS011;5776;51.814;4.510;2022-07-23T02:54:58;3.25;;;1.55;;
11439;SDS011;5776;51.814;4.510;2022-07-23T02:57:24;6.10;;;1.45;;
11439;SDS011;5776;51.814;4.510;2022-07-23T02:59:51;1.65;;;1.10;;
11439;SDS011;5776;51.814;4.510;2022-07-23T03:02:17;1.75;;;1.30;;
11439;SDS011;5776;51.814;4.510;2022-07-23T03:04:43;3.80;;;1.58;;
11439;SDS011;5776;51.814;4.510;2022-07-23T03:07:09;3.35;;;1.63;;
11439;SDS011;5776;51.814;4.510;2022-07-23T03:09:35;3.05;;;1.40;;
11439;SDS011;5776;51.814;4.510;2022-07-23T03:12:01;3.33;;;1.55;;
11439;SDS011;5776;51.814;4.510;2022-07-23T03:14:27;4.65;;;1.70;;
11439;SDS011;5776;51.814;4.510;2022-07-23T03:16:53;5.00;;;1.60;;
11439;SDS011;5776;51.814;4.510;2022-07-23T03:19:20;4.65;;;1.80;;
11439;SDS011;5776;51.814;4.510;2022-07-23T03:21:46;6.57;;;1.88;;
11439;SDS011;5776;51.814;4.510;2022-07-23T03:24:12;5.97;;;1.63;;
11439;SDS011;5776;51.814;4.510;2022-07-23T03:26:38;7.65;;;1.52;;
11439;SDS011;5776;51.814;4.510;2022-07-23T03:29:04;2.53;;;1.17;;
11439;SDS011;5776;51.814;4.510;2022-07-23T03:31:30;3.15;;;1.40;;
11439;SDS011;5776;51.814;4.510;2022-07-23T03:33:57;4.25;;;1.70;;
11439;SDS011;5776;51.814;4.510;2022-07-23T03:36:23;3.55;;;1.40;;
11439;SDS011;5776;51.814;4.510;2022-07-23T03:38:49;3.22;;;1.50;;
11439;SDS011;5776;51.814;4.510;2022-07-23T03:41:16;3.75;;;1.67;;
11439;SDS011;5776;51.814;4.510;2022-07-23T03:43:43;3.13;;;1.40;;
11439;SDS011;5776;51.814;4.510;2022-07-23T03:46:09;3.20;;;1.35;;
11439;SDS011;5776;51.814;4.510;2022-07-23T03:48:35;5.38;;;1.88;;
11439;SDS011;5776;51.814;4.510;2022-07-23T03:51:01;5.13;;;1.55;;
11439;SDS011;5776;51.814;4.510;2022-07-23T03:53:27;6.78;;;1.80;;
11439;SDS011;5776;51.814;4.510;2022-07-23T03:55:54;7.90;;;2.28;;
11439;SDS011;5776;51.814;4.510;2022-07-23T03:58:19;4.30;;;1.30;;
11439;SDS011;5776;51.814;4.510;2022-07-23T04:00:46;2.88;;;1.50;;
11439;SDS011;5776;51.814;4.510;2022-07-23T04:03:12;2.72;;;1.60;;
11439;SDS011;5776;51.814;4.510;2022-07-23T04:05:38;2.63;;;1.45;;
11439;SDS011;5776;51.814;4.510;2022-07-23T04:08:04;3.25;;;1.80;;
11439;SDS011;5776;51.814;4.510;2022-07-23T04:10:30;3.80;;;2.05;;
11439;SDS011;5776;51.814;4.510;2022-07-23T04:12:56;3.83;;;1.58;;
11439;SDS011;5776;51.814;4.510;2022-07-23T04:15:22;4.95;;;2.08;;
11439;SDS011;5776;51.814;4.510;2022-07-23T04:17:47;4.00;;;1.70;;
11439;SDS011;5776;51.814;4.510;2022-07-23T04:20:13;2.13;;;1.40;;
11439;SDS011;5776;51.814;4.510;2022-07-23T04:22:39;3.30;;;1.70;;
11439;SDS011;5776;51.814;4.510;2022-07-23T04:25:05;3.85;;;1.80;;
11439;SDS011;5776;51.814;4.510;2022-07-23T04:27:32;3.65;;;1.70;;
11439;SDS011;5776;51.814;4.510;2022-07-23T04:29:59;5.25;;;1.42;;
11439;SDS011;5776;51.814;4.510;2022-07-23T04:32:25;2.35;;;1.40;;
11439;SDS011;5776;51.814;4.510;2022-07-23T04:34:50;4.82;;;1.80;;
11439;SDS011;5776;51.814;4.510;2022-07-23T04:37:16;4.43;;;1.75;;
11439;SDS011;5776;51.814;4.510;2022-07-23T04:39:42;3.28;;;1.63;;
11439;SDS011;5776;51.814;4.510;2022-07-23T04:42:10;3.22;;;1.60;;
11439;SDS011;5776;51.814;4.510;2022-07-23T04:44:36;4.55;;;2.20;;
11439;SDS011;5776;51.814;4.510;2022-07-23T04:47:02;3.70;;;2.08;;
11439;SDS011;5776;51.814;4.510;2022-07-23T04:49:28;10.05;;;2.13;;
11439;SDS011;5776;51.814;4.510;2022-07-23T04:51:54;5.95;;;2.20;;
11439;SDS011;5776;51.814;4.510;2022-07-23T04:54:20;4.13;;;2.05;;
11439;SDS011;5776;51.814;4.510;2022-07-23T04:56:45;3.53;;;2.25;;
11439;SDS011;5776;51.814;4.510;2022-07-23T04:59:11;3.33;;;2.08;;
11439;SDS011;5776;51.814;4.510;2022-07-23T05:01:37;6.45;;;2.70;;
11439;SDS011;5776;51.814;4.510;2022-07-23T05:04:03;4.38;;;1.90;;
11439;SDS011;5776;51.814;4.510;2022-07-23T05:06:29;6.57;;;2.13;;
11439;SDS011;5776;51.814;4.510;2022-07-23T05:08:55;6.93;;;2.55;;
11439;SDS011;5776;51.814;4.510;2022-07-23T05:11:21;3.50;;;1.92;;
11439;SDS011;5776;51.814;4.510;2022-07-23T05:13:47;4.47;;;2.10;;
11439;SDS011;5776;51.814;4.510;2022-07-23T05:16:13;3.58;;;2.08;;
11439;SDS011;5776;51.814;4.510;2022-07-23T05:18:38;4.38;;;2.25;;
11439;SDS011;5776;51.814;4.510;2022-07-23T05:21:04;4.30;;;2.38;;
11439;SDS011;5776;51.814;4.510;2022-07-23T05:23:30;5.60;;;2.28;;
11439;SDS011;5776;51.814;4.510;2022-07-23T05:25:56;3.53;;;1.75;;
11439;SDS011;5776;51.814;4.510;2022-07-23T05:28:22;3.47;;;2.15;;
11439;SDS011;5776;51.814;4.510;2022-07-23T05:30:48;5.38;;;1.92;;
11439;SDS011;5776;51.814;4.510;2022-07-23T05:33:14;5.93;;;2.53;;
11439;SDS011;5776;51.814;4.510;2022-07-23T05:35:40;3.35;;;1.73;;
11439;SDS011;5776;51.814;4.510;2022-07-23T05:38:06;2.80;;;1.60;;
11439;SDS011;5776;51.814;4.510;2022-07-23T05:40:32;4.10;;;2.13;;
11439;SDS011;5776;51.814;4.510;2022-07-23T05:42:58;3.67;;;1.80;;
11439;SDS011;5776;51.814;4.510;2022-07-23T05:45:24;6.20;;;2.58;;
11439;SDS011;5776;51.814;4.510;2022-07-23T05:47:50;3.22;;;1.88;;
11439;SDS011;5776;51.814;4.510;2022-07-23T05:50:16;4.28;;;2.30;;
11439;SDS011;5776;51.814;4.510;2022-07-23T05:52:42;3.03;;;1.60;;
11439;SDS011;5776;51.814;4.510;2022-07-23T05:55:09;3.83;;;1.95;;
11439;SDS011;5776;51.814;4.510;2022-07-23T05:57:36;4.95;;;2.05;;
11439;SDS011;5776;51.814;4.510;2022-07-23T06:00:03;3.65;;;1.42;;
11439;SDS011;5776;51.814;4.510;2022-07-23T06:02:30;3.95;;;1.60;;
11439;SDS011;5776;51.814;4.510;2022-07-23T06:04:56;2.63;;;1.58;;
11439;SDS011;5776;51.814;4.510;2022-07-23T06:07:22;2.97;;;1.52;;
11439;SDS011;5776;51.814;4.510;2022-07-23T06:09:48;4.28;;;1.60;;
11439;SDS011;5776;51.814;4.510;2022-07-23T06:12:15;1.73;;;1.23;;
11439;SDS011;5776;51.814;4.510;2022-07-23T06:14:41;3.20;;;1.48;;
11439;SDS011;5776;51.814;4.510;2022-07-23T06:17:07;7.93;;;2.05;;
11439;SDS011;5776;51.814;4.510;2022-07-23T06:19:33;3.08;;;1.40;;
11439;SDS011;5776;51.814;4.510;2022-07-23T06:21:59;2.20;;;1.45;;
11439;SDS011;5776;51.814;4.510;2022-07-23T06:24:25;2.10;;;1.17;;
11439;SDS011;5776;51.814;4.510;2022-07-23T06:26:51;2.80;;;1.25;;
11439;SDS011;5776;51.814;4.510;2022-07-23T06:29:17;5.30;;;1.30;;
11439;SDS011;5776;51.814;4.510;2022-07-23T06:31:43;2.22;;;1.00;;
11439;SDS011;5776;51.814;4.510;2022-07-23T06:34:09;2.20;;;1.25;;
11439;SDS011;5776;51.814;4.510;2022-07-23T06:36:35;7.15;;;1.48;;
11439;SDS011;5776;51.814;4.510;2022-07-23T06:39:01;2.97;;;1.40;;
11439;SDS011;5776;51.814;4.510;2022-07-23T06:41:27;4.25;;;2.33;;
11439;SDS011;5776;51.814;4.510;2022-07-23T06:43:53;3.78;;;1.75;;
11439;SDS011;5776;51.814;4.510;2022-07-23T06:46:18;4.80;;;1.80;;
11439;SDS011;5776;51.814;4.510;2022-07-23T06:48:44;2.60;;;1.27;;
11439;SDS011;5776;51.814;4.510;2022-07-23T06:51:10;5.50;;;1.40;;
11439;SDS011;5776;51.814;4.510;2022-07-23T06:53:36;4.95;;;1.33;;
11439;SDS011;5776;51.814;4.510;2022-07-23T06:56:02;4.68;;;1.38;;
11439;SDS011;5776;51.814;4.510;2022-07-23T06:58:28;4.38;;;1.35;;
11439;SDS011;5776;51.814;4.510;2022-07-23T07:00:54;3.63;;;1.13;;
11439;SDS011;5776;51.814;4.510;2022-07-23T07:03:22;2.42;;;1.20;;
11439;SDS011;5776;51.814;4.510;2022-07-23T07:05:48;4.20;;;1.45;;
11439;SDS011;5776;51.814;4.510;2022-07-23T07:08:15;4.95;;;1.50;;
11439;SDS011;5776;51.814;4.510;2022-07-23T07:10:41;3.85;;;1.02;;
11439;SDS011;5776;51.814;4.510;2022-07-23T07:13:07;4.63;;;1.10;;
11439;SDS011;5776;51.814;4.510;2022-07-23T07:15:33;2.83;;;1.25;;
11439;SDS011;5776;51.814;4.510;2022-07-23T07:17:59;3.45;;;1.38;;
11439;SDS011;5776;51.814;4.510;2022-07-23T07:20:25;2.33;;;0.93;;
11439;SDS011;5776;51.814;4.510;2022-07-23T07:22:51;7.18;;;1.38;;
11439;SDS011;5776;51.814;4.510;2022-07-23T07:25:17;2.78;;;1.08;;
11439;SDS011;5776;51.814;4.510;2022-07-23T07:27:43;4.70;;;0.88;;
11439;SDS011;5776;51.814;4.510;2022-07-23T07:30:09;2.63;;;1.35;;
11439;SDS011;5776;51.814;4.510;2022-07-23T07:32:36;5.05;;;1.52;;
11439;SDS011;5776;51.814;4.510;2022-07-23T07:35:03;3.40;;;1.25;;
11439;SDS011;5776;51.814;4.510;2022-07-23T07:37:30;3.90;;;1.55;;
11439;SDS011;5776;51.814;4.510;2022-07-23T07:39:56;2.65;;;1.10;;
11439;SDS011;5776;51.814;4.510;2022-07-23T07:42:21;3.60;;;1.08;;
11439;SDS011;5776;51.814;4.510;2022-07-23T07:44:47;6.65;;;1.67;;
11439;SDS011;5776;51.814;4.510;2022-07-23T07:47:13;3.03;;;1.20;;
11439;SDS011;5776;51.814;4.510;2022-07-23T07:49:41;3.47;;;0.80;;
11439;SDS011;5776;51.814;4.510;2022-07-23T07:52:08;4.45;;;1.27;;
11439;SDS011;5776;51.814;4.510;2022-07-23T07:54:34;3.38;;;1.38;;
11439;SDS011;5776;51.814;4.510;2022-07-23T07:57:00;2.60;;;1.10;;
11439;SDS011;5776;51.814;4.510;2022-07-23T07:59:26;4.13;;;1.30;;
11439;SDS011;5776;51.814;4.510;2022-07-23T08:01:52;3.72;;;1.50;;
11439;SDS011;5776;51.814;4.510;2022-07-23T08:04:18;2.45;;;1.27;;
11439;SDS011;5776;51.814;4.510;2022-07-23T08:06:44;3.65;;;1.30;;
11439;SDS011;5776;51.814;4.510;2022-07-23T08:09:10;7.00;;;2.30;;
11439;SDS011;5776;51.814;4.510;2022-07-23T08:11:36;5.20;;;1.50;;
11439;SDS011;5776;51.814;4.510;2022-07-23T08:14:02;5.15;;;1.15;;
11439;SDS011;5776;51.814;4.510;2022-07-23T08:16:28;4.22;;;1.73;;
11439;SDS011;5776;51.814;4.510;2022-07-23T08:18:54;2.83;;;1.80;;
11439;SDS011;5776;51.814;4.510;2022-07-23T08:21:20;2.30;;;0.98;;
11439;SDS011;5776;51.814;4.510;2022-07-23T08:23:46;1.30;;;0.88;;
11439;SDS011;5776;51.814;4.510;2022-07-23T08:26:12;2.13;;;1.30;;
11439;SDS011;5776;51.814;4.510;2022-07-23T08:28:38;3.40;;;1.40;;
11439;SDS011;5776;51.814;4.510;2022-07-23T08:31:04;4.45;;;1.50;;
11439;SDS011;5776;51.814;4.510;2022-07-23T08:33:31;6.63;;;1.70;;
11439;SDS011;5776;51.814;4.510;2022-07-23T08:35:57;3.50;;;1.30;;
11439;SDS011;5776;51.814;4.510;2022-07-23T08:38:23;4.15;;;1.50;;
11439;SDS011;5776;51.814;4.510;2022-07-23T08:40:51;9.95;;;1.67;;
11439;SDS011;5776;51.814;4.510;2022-07-23T08:43:19;4.10;;;1.42;;
11439;SDS011;5776;51.814;4.510;2022-07-23T08:45:47;6.05;;;1.55;;
11439;SDS011;5776;51.814;4.510;2022-07-23T08:48:16;2.85;;;1.58;;
11439;SDS011;5776;51.814;4.510;2022-07-23T08:50:45;4.00;;;1.40;;
11439;SDS011;5776;51.814;4.510;2022-07-23T08:53:13;6.35;;;1.77;;
11439;SDS011;5776;51.814;4.510;2022-07-23T08:55:44;2.88;;;1.52;;
11439;SDS011;5776;51.814;4.510;2022-07-23T08:58:14;3.25;;;1.38;;
11439;SDS011;5776;51.814;4.510;2022-07-23T09:00:41;3.03;;;1.20;;
11439;SDS011;5776;51.814;4.510;2022-07-23T09:03:07;3.95;;;1.40;;
11439;SDS011;5776;51.814;4.510;2022-07-23T09:05:45;5.78;;;1.75;;
11439;SDS011;5776;51.814;4.510;2022-07-23T09:08:12;3.47;;;0.98;;
11439;SDS011;5776;51.814;4.510;2022-07-23T09:15:57;2.80;;;1.75;;
11439;SDS011;5776;51.814;4.510;2022-07-23T09:18:28;3.72;;;1.20;;
11439;SDS011;5776;51.814;4.510;2022-07-23T09:21:06;3.70;;;1.67;;
11439;SDS011;5776;51.814;4.510;2022-07-23T09:23:44;7.32;;;1.98;;
11439;SDS011;5776;51.814;4.510;2022-07-23T09:36:41;4.47;;;1.90;;
11439;SDS011;5776;51.814;4.510;2022-07-23T09:39:07;3.55;;;1.80;;
11439;SDS011;5776;51.814;4.510;2022-07-23T09:41:35;6.30;;;2.05;;
11439;SDS011;5776;51.814;4.510;2022-07-23T09:44:07;4.18;;;1.20;;
11439;SDS011;5776;51.814;4.510;2022-07-23T09:46:34;5.35;;;1.90;;
11439;SDS011;5776;51.814;4.510;2022-07-23T09:49:00;4.85;;;1.77;;
11439;SDS011;5776;51.814;4.510;2022-07-23T09:51:46;2.03;;;1.50;;
11439;SDS011;5776;51.814;4.510;2022-07-23T09:54:41;4.63;;;1.85;;
11439;SDS011;5776;51.814;4.510;2022-07-23T09:57:10;5.05;;;1.70;;
11439;SDS011;5776;51.814;4.510;2022-07-23T09:59:42;10.68;;;2.13;;
11439;SDS011;5776;51.814;4.510;2022-07-23T10:02:11;5.30;;;1.98;;
11439;SDS011;5776;51.814;4.510;2022-07-23T10:04:38;3.90;;;1.80;;
11439;SDS011;5776;51.814;4.510;2022-07-23T10:07:06;5.72;;;2.00;;
11439;SDS011;5776;51.814;4.510;2022-07-23T10:09:36;3.30;;;1.50;;
11439;SDS011;5776;51.814;4.510;2022-07-23T10:12:04;5.15;;;1.98;;
11439;SDS011;5776;51.814;4.510;2022-07-23T10:14:53;3.63;;;1.50;;
11439;SDS011;5776;51.814;4.510;2022-07-23T10:17:19;1.92;;;1.20;;
11439;SDS011;5776;51.814;4.510;2022-07-23T10:19:45;4.95;;;2.33;;
11439;SDS011;5776;51.814;4.510;2022-07-23T10:22:12;6.72;;;2.42;;
11439;SDS011;5776;51.814;4.510;2022-07-23T10:33:05;3.65;;;2.30;;
11439;SDS011;5776;51.814;4.510;2022-07-23T10:36:00;3.33;;;1.80;;
11439;SDS011;5776;51.814;4.510;2022-07-23T10:38:47;4.28;;;1.70;;
11439;SDS011;5776;51.814;4.510;2022-07-23T10:41:35;3.50;;;1.98;;
11439;SDS011;5776;51.814;4.510;2022-07-23T10:44:12;2.97;;;2.00;;
11439;SDS011;5776;51.814;4.510;2022-07-23T10:49:31;4.07;;;2.40;;
11439;SDS011;5776;51.814;4.510;2022-07-23T10:54:42;6.07;;;3.33;;
11439;SDS011;5776;51.814;4.510;2022-07-23T10:57:09;6.25;;;2.35;;
11439;SDS011;5776;51.814;4.510;2022-07-23T11:02:35;5.57;;;3.22;;
11439;SDS011;5776;51.814;4.510;2022-07-23T11:05:06;6.95;;;2.92;;
11439;SDS011;5776;51.814;4.510;2022-07-23T11:07:35;7.47;;;3.38;;
11439;SDS011;5776;51.814;4.510;2022-07-23T11:10:03;8.20;;;3.95;;
11439;SDS011;5776;51.814;4.510;2022-07-23T11:12:43;3.80;;;3.00;;
11439;SDS011;5776;51.814;4.510;2022-07-23T11:15:09;5.57;;;2.80;;
11439;SDS011;5776;51.814;4.510;2022-07-23T11:25:10;4.50;;;1.77;;
11439;SDS011;5776;51.814;4.510;2022-07-23T11:27:38;4.03;;;2.13;;
11439;SDS011;5776;51.814;4.510;2022-07-23T11:30:05;2.60;;;1.35;;
11439;SDS011;5776;51.814;4.510;2022-07-23T11:32:34;7.93;;;1.75;;
11439;SDS011;5776;51.814;4.510;2022-07-23T11:35:21;3.45;;;2.25;;
11439;SDS011;5776;51.814;4.510;2022-07-23T11:37:48;3.40;;;1.92;;
11439;SDS011;5776;51.814;4.510;2022-07-23T11:40:19;3.28;;;1.42;;
11439;SDS011;5776;51.814;4.510;2022-07-23T11:42:53;2.58;;;1.33;;
11439;SDS011;5776;51.814;4.510;2022-07-23T11:45:30;1.73;;;1.40;;
11439;SDS011;5776;51.814;4.510;2022-07-23T11:48:01;2.33;;;1.40;;
11439;SDS011;5776;51.814;4.510;2022-07-23T11:50:27;2.67;;;1.67;;
11439;SDS011;5776;51.814;4.510;2022-07-23T11:52:54;2.78;;;1.50;;
11439;SDS011;5776;51.814;4.510;2022-07-23T11:55:20;1.95;;;1.60;;
11439;SDS011;5776;51.814;4.510;2022-07-23T11:57:46;3.28;;;1.55;;
11439;SDS011;5776;51.814;4.510;2022-07-23T12:00:17;3.03;;;1.25;;
11439;SDS011;5776;51.814;4.510;2022-07-23T12:02:47;3.17;;;1.40;;
11439;SDS011;5776;51.814;4.510;2022-07-23T12:05:16;2.53;;;1.23;;
11439;SDS011;5776;51.814;4.510;2022-07-23T12:07:44;4.40;;;1.15;;
11439;SDS011;5776;51.814;4.510;2022-07-23T12:12:49;1.85;;;1.60;;
11439;SDS011;5776;51.814;4.510;2022-07-23T12:15:26;3.58;;;2.00;;
11439;SDS011;5776;51.814;4.510;2022-07-23T12:17:56;2.58;;;1.77;;
11439;SDS011;5776;51.814;4.510;2022-07-23T12:20:25;5.45;;;1.58;;
11439;SDS011;5776;51.814;4.510;2022-07-23T12:23:14;2.08;;;1.05;;
11439;SDS011;5776;51.814;4.510;2022-07-23T12:25:42;3.78;;;1.90;;
11439;SDS011;5776;51.814;4.510;2022-07-23T12:28:10;4.35;;;1.90;;
11439;SDS011;5776;51.814;4.510;2022-07-23T12:30:44;3.45;;;2.17;;
11439;SDS011;5776;51.814;4.510;2022-07-23T12:33:15;4.20;;;1.98;;
11439;SDS011;5776;51.814;4.510;2022-07-23T12:35:48;2.38;;;2.03;;
11439;SDS011;5776;51.814;4.510;2022-07-23T12:38:14;5.88;;;2.30;;
11439;SDS011;5776;51.814;4.510;2022-07-23T12:43:20;5.50;;;2.63;;
11439;SDS011;5776;51.814;4.510;2022-07-23T12:45:52;4.40;;;2.60;;
11439;SDS011;5776;51.814;4.510;2022-07-23T12:48:28;3.10;;;2.35;;
11439;SDS011;5776;51.814;4.510;2022-07-23T12:53:33;4.95;;;2.45;;
11439;SDS011;5776;51.814;4.510;2022-07-23T13:06:21;3.90;;;2.67;;
11439;SDS011;5776;51.814;4.510;2022-07-23T13:08:47;2.53;;;1.98;;
11439;SDS011;5776;51.814;4.510;2022-07-23T13:11:13;5.05;;;2.08;;
11439;SDS011;5776;51.814;4.510;2022-07-23T13:13:39;4.50;;;1.48;;
11439;SDS011;5776;51.814;4.510;2022-07-23T13:16:05;2.88;;;1.70;;
11439;SDS011;5776;51.814;4.510;2022-07-23T13:18:43;2.63;;;1.63;;
11439;SDS011;5776;51.814;4.510;2022-07-23T13:21:09;2.92;;;1.20;;
11439;SDS011;5776;51.814;4.510;2022-07-23T13:23:35;2.65;;;1.23;;
11439;SDS011;5776;51.814;4.510;2022-07-23T13:26:02;2.00;;;1.00;;
11439;SDS011;5776;51.814;4.510;2022-07-23T13:28:43;1.48;;;1.00;;
11439;SDS011;5776;51.814;4.510;2022-07-23T13:31:09;3.58;;;0.93;;
11439;SDS011;5776;51.814;4.510;2022-07-23T13:33:35;3.33;;;1.10;;
11439;SDS011;5776;51.814;4.510;2022-07-23T13:36:01;1.60;;;1.10;;
11439;SDS011;5776;51.814;4.510;2022-07-23T13:38:27;5.97;;;0.90;;
11439;SDS011;5776;51.814;4.510;2022-07-23T13:40:53;2.05;;;1.00;;
11439;SDS011;5776;51.814;4.510;2022-07-23T13:43:20;1.42;;;0.82;;
11439;SDS011;5776;51.814;4.510;2022-07-23T13:45:48;2.55;;;0.80;;
11439;SDS011;5776;51.814;4.510;2022-07-23T13:48:14;1.70;;;0.80;;
11439;SDS011;5776;51.814;4.510;2022-07-23T13:50:40;0.90;;;0.80;;
11439;SDS011;5776;51.814;4.510;2022-07-23T13:53:10;2.42;;;0.88;;
11439;SDS011;5776;51.814;4.510;2022-07-23T13:55:42;2.15;;;0.93;;
11439;SDS011;5776;51.814;4.510;2022-07-23T13:58:09;2.22;;;0.90;;
11439;SDS011;5776;51.814;4.510;2022-07-23T14:00:36;4.38;;;1.33;;
11439;SDS011;5776;51.814;4.510;2022-07-23T14:03:04;1.80;;;0.55;;
11439;SDS011;5776;51.814;4.510;2022-07-23T14:05:44;1.75;;;1.10;;
11439;SDS011;5776;51.814;4.510;2022-07-23T14:08:10;3.17;;;1.50;;
11439;SDS011;5776;51.814;4.510;2022-07-23T14:10:36;2.83;;;1.10;;
11439;SDS011;5776;51.814;4.510;2022-07-23T14:13:02;2.10;;;1.65;;
11439;SDS011;5776;51.814;4.510;2022-07-23T14:15:29;2.42;;;1.55;;
11439;SDS011;5776;51.814;4.510;2022-07-23T14:17:56;2.17;;;1.65;;
11439;SDS011;5776;51.814;4.510;2022-07-23T14:20:22;3.25;;;1.63;;
11439;SDS011;5776;51.814;4.510;2022-07-23T14:22:48;1.90;;;1.40;;
11439;SDS011;5776;51.814;4.510;2022-07-23T14:25:15;2.30;;;1.13;;
11439;SDS011;5776;51.814;4.510;2022-07-23T14:27:42;4.13;;;1.60;;
11439;SDS011;5776;51.814;4.510;2022-07-23T14:30:08;6.75;;;1.90;;
11439;SDS011;5776;51.814;4.510;2022-07-23T14:32:35;2.17;;;1.98;;
11439;SDS011;5776;51.814;4.510;2022-07-23T14:35:02;3.75;;;1.73;;
11439;SDS011;5776;51.814;4.510;2022-07-23T14:37:29;2.30;;;1.52;;
11439;SDS011;5776;51.814;4.510;2022-07-23T14:39:55;2.40;;;2.17;;
11439;SDS011;5776;51.814;4.510;2022-07-23T14:42:21;2.65;;;2.10;;
11439;SDS011;5776;51.814;4.510;2022-07-23T14:44:47;3.45;;;1.98;;
11439;SDS011;5776;51.814;4.510;2022-07-23T14:47:13;2.83;;;1.98;;
11439;SDS011;5776;51.814;4.510;2022-07-23T14:49:39;2.97;;;1.90;;
11439;SDS011;5776;51.814;4.510;2022-07-23T14:52:05;2.90;;;2.00;;
11439;SDS011;5776;51.814;4.510;2022-07-23T14:54:32;3.33;;;2.33;;
11439;SDS011;5776;51.814;4.510;2022-07-23T14:56:58;4.03;;;2.28;;
11439;SDS011;5776;51.814;4.510;2022-07-23T14:59:26;5.25;;;2.28;;
11439;SDS011;5776;51.814;4.510;2022-07-23T15:01:52;4.93;;;2.85;;
11439;SDS011;5776;51.814;4.510;2022-07-23T15:04:20;3.50;;;2.63;;
11439;SDS011;5776;51.814;4.510;2022-07-23T15:06:46;5.25;;;2.65;;
11439;SDS011;5776;51.814;4.510;2022-07-23T15:09:12;6.30;;;2.25;;
11439;SDS011;5776;51.814;4.510;2022-07-23T15:11:39;5.70;;;2.80;;
11439;SDS011;5776;51.814;4.510;2022-07-23T15:14:06;4.28;;;2.67;;
11439;SDS011;5776;51.814;4.510;2022-07-23T15:16:33;5.43;;;2.67;;
11439;SDS011;5776;51.814;4.510;2022-07-23T15:18:59;3.17;;;2.47;;
11439;SDS011;5776;51.814;4.510;2022-07-23T15:21:27;4.68;;;3.17;;
11439;SDS011;5776;51.814;4.510;2022-07-23T15:23:57;3.90;;;2.85;;
11439;SDS011;5776;51.814;4.510;2022-07-23T15:26:29;4.53;;;2.60;;
11439;SDS011;5776;51.814;4.510;2022-07-23T15:28:56;5.00;;;2.28;;
11439;SDS011;5776;51.814;4.510;2022-07-23T15:31:24;4.15;;;2.65;;
11439;SDS011;5776;51.814;4.510;2022-07-23T15:33:50;3.92;;;2.63;;
11439;SDS011;5776;51.814;4.510;2022-07-23T15:36:17;6.63;;;2.95;;
11439;SDS011;5776;51.814;4.510;2022-07-23T15:38:44;5.72;;;2.63;;
11439;SDS011;5776;51.814;4.510;2022-07-23T15:41:11;4.22;;;2.40;;
11439;SDS011;5776;51.814;4.510;2022-07-23T15:43:36;4.78;;;2.50;;
11439;SDS011;5776;51.814;4.510;2022-07-23T15:46:03;5.82;;;2.70;;
11439;SDS011;5776;51.814;4.510;2022-07-23T15:48:30;7.75;;;3.00;;
11439;SDS011;5776;51.814;4.510;2022-07-23T15:50:55;8.68;;;2.70;;
11439;SDS011;5776;51.814;4.510;2022-07-23T15:53:21;3.30;;;2.50;;
11439;SDS011;5776;51.814;4.510;2022-07-23T15:55:47;4.18;;;2.65;;
11439;SDS011;5776;51.814;4.510;2022-07-23T15:58:13;5.18;;;2.42;;
11439;SDS011;5776;51.814;4.510;2022-07-23T16:00:40;4.43;;;2.65;;